^^
Grace C. Lehan Memorial Weather Station Historical Data
Daily Summary for February 18, 2021 Units:  Metric    English   Both
Daily Weekly Monthly Yearly
  High: Low: Average:
Temperature: 8.6 °C -0.1 °C 4.1 °C
Dew Point: 1.2 °C -4.5 °C -0.9 °C
Humidity: 85% 51% 70%
Wind Speed: 15.9km/h 0km/h 2.9km/h
Wind Gust: 30.6km/h - -
Wind- - WSW
Pressure: 1011.4 hPa 1002.6 hPa -
Precipitation: 0 mm    
 
 
Tabular Data for February 18, 2021
Time Temperature Dew Point Pressure Wind Wind Speed Wind Gust Humidity Rainfall Rate (Hourly) solar
00:04 4.9 °C -1.1 °C 1002.9 hPa SW 6 km/h 14.5 km/h 65% 0 mm 0 W/m2
00:09 4.9 °C -1.1 °C 1002.9 hPa SW 1.9 km/h 9.7 km/h 65% 0 mm 0 W/m2
00:14 4.9 °C -1.1 °C 1002.9 hPa SW 3.2 km/h 9.7 km/h 65.5% 0 mm 0 W/m2
00:19 4.9 °C -1 °C 1002.9 hPa SW 2.7 km/h 11.3 km/h 65.5% 0 mm 0 W/m2
00:24 4.9 °C -0.9 °C 1002.9 hPa SW 3.5 km/h 11.3 km/h 66% 0 mm 0 W/m2
00:29 4.9 °C -0.9 °C 1002.9 hPa SW 2.1 km/h 11.3 km/h 66% 0 mm 0 W/m2
00:34 4.9 °C -0.9 °C 1002.9 hPa SW 2.9 km/h 11.3 km/h 66% 0 mm 0 W/m2
00:39 4.9 °C -0.9 °C 1002.9 hPa SW 2.6 km/h 11.3 km/h 66% 0 mm 0 W/m2
00:44 4.9 °C -0.9 °C 1002.9 hPa SW 2.1 km/h 11.3 km/h 66% 0 mm 0 W/m2
00:49 4.9 °C -0.9 °C 1002.9 hPa SW 2.3 km/h 11.3 km/h 66% 0 mm 0 W/m2
00:54 4.8 °C -0.9 °C 1002.9 hPa SW 2.6 km/h 11.3 km/h 66.3% 0 mm 0 W/m2
00:59 4.8 °C -0.9 °C 1002.9 hPa SW 2.6 km/h 14.5 km/h 66% 0 mm 0 W/m2
01:04 4.9 °C -0.9 °C 1002.9 hPa SW 2.4 km/h 14.5 km/h 66.3% 0 mm 0 W/m2
01:09 4.9 °C -0.7 °C 1002.9 hPa SW 1.4 km/h 11.3 km/h 67% 0 mm 0 W/m2
01:14 4.9 °C -0.7 °C 1002.9 hPa SW 1.1 km/h 11.3 km/h 67% 0 mm 0 W/m2
01:19 4.8 °C -0.8 °C 1002.9 hPa SW 2.9 km/h 11.3 km/h 67% 0 mm 0 W/m2
01:24 4.8 °C -0.8 °C 1002.9 hPa SW 1.4 km/h 11.3 km/h 67% 0 mm 0 W/m2
01:29 4.8 °C -0.8 °C 1002.9 hPa SW 2.6 km/h 11.3 km/h 67% 0 mm 0 W/m2
01:34 4.8 °C -0.8 °C 1002.9 hPa SW 1.1 km/h 11.3 km/h 67% 0 mm 0 W/m2
01:39 4.8 °C -0.8 °C 1002.9 hPa SW 1.1 km/h 6.4 km/h 67% 0 mm 0 W/m2
01:44 4.8 °C -0.8 °C 1002.9 hPa SW 0.6 km/h 6.4 km/h 67% 0 mm 0 W/m2
01:49 4.8 °C -0.8 °C 1002.9 hPa SW 1 km/h 6.4 km/h 67% 0 mm 0 W/m2
01:54 4.8 °C -0.8 °C 1002.9 hPa SW 2.1 km/h 8 km/h 67% 0 mm 0 W/m2
01:59 4.7 °C -0.9 °C 1002.6 hPa WSW 1.3 km/h 8 km/h 67% 0 mm 0 W/m2
02:04 4.7 °C -0.9 °C 1002.6 hPa WSW 1 km/h 8 km/h 67% 0 mm 0 W/m2
02:09 4.6 °C -0.9 °C 1002.6 hPa WSW 0.8 km/h 3.2 km/h 67.5% 0 mm 0 W/m2
02:14 4.4 °C -1 °C 1002.6 hPa WSW 0.5 km/h 4.8 km/h 67.7% 0 mm 0 W/m2
02:19 4.3 °C -1.1 °C 1002.9 hPa Calm   4.8 km/h 68% 0 mm 0 W/m2
02:24 4.2 °C -1.2 °C 1002.9 hPa SW 1.1 km/h 4.8 km/h 68% 0 mm 0 W/m2
02:29 4.2 °C -1 °C 1002.9 hPa SW 1.6 km/h 8 km/h 69% 0 mm 0 W/m2
02:34 4.1 °C -1.1 °C 1002.9 hPa SW 0.6 km/h 8 km/h 69% 0 mm 0 W/m2
02:39 4.1 °C -1.1 °C 1002.9 hPa SW 1.4 km/h 4.8 km/h 69% 0 mm 0 W/m2
02:44 4.1 °C -1.1 °C 1002.6 hPa SW 1.1 km/h 4.8 km/h 69% 0 mm 0 W/m2
02:49 4 °C -1.2 °C 1002.9 hPa SW 1.3 km/h 4.8 km/h 69% 0 mm 0 W/m2
02:54 4 °C -1.1 °C 1002.9 hPa SW 1 km/h 4.8 km/h 69.4% 0 mm 0 W/m2
02:59 4 °C -1 °C 1002.9 hPa SW 0.3 km/h 4.8 km/h 70% 0 mm 0 W/m2
03:04 4 °C -1 °C 1002.9 hPa SW 1.3 km/h 4.8 km/h 70% 0 mm 0 W/m2
03:09 4 °C -0.9 °C 1002.9 hPa SW 1.6 km/h 6.4 km/h 70% 0 mm 0 W/m2
03:14 4 °C -1 °C 1002.9 hPa SW 2.1 km/h 6.4 km/h 70% 0 mm 0 W/m2
03:19 3.9 °C -1 °C 1002.9 hPa SW 3.4 km/h 8 km/h 70% 0 mm 0 W/m2
03:24 3.9 °C -1.1 °C 1002.9 hPa SW 4 km/h 16.1 km/h 70% 0 mm 0 W/m2
03:29 3.9 °C -1.1 °C 1002.9 hPa SW 3.4 km/h 16.1 km/h 70% 0 mm 0 W/m2
03:34 3.8 °C -1 °C 1002.9 hPa SW 1.3 km/h 16.1 km/h 70.7% 0 mm 0 W/m2
03:39 3.8 °C -1 °C 1002.9 hPa SW 4.3 km/h 12.9 km/h 71% 0 mm 0 W/m2
03:44 3.7 °C -1.1 °C 1002.9 hPa SW 2.6 km/h 14.5 km/h 71% 0 mm 0 W/m2
03:49 3.7 °C -1 °C 1002.6 hPa WSW 2.9 km/h 14.5 km/h 71.5% 0 mm 0 W/m2
03:54 3.6 °C -0.9 °C 1002.6 hPa SW 1.9 km/h 14.5 km/h 72% 0 mm 0 W/m2
03:59 3.6 °C -1.1 °C 1002.6 hPa SW 2.1 km/h 16.1 km/h 72% 0 mm 0 W/m2
04:00 3.4 °C -1.1 °C 1002.6 hPa SW 0.8 km/h 16.1 km/h 72% 0 mm 0 W/m2
04:09 3.3 °C -1 °C 1002.6 hPa WSW 0.6 km/h 4.8 km/h 73% 0 mm 0 W/m2
04:14 3.3 °C -1.1 °C 1002.6 hPa WSW 1.4 km/h 8 km/h 73.4% 0 mm 0 W/m2
04:19 3.2 °C -1 °C 1002.6 hPa WSW 1.1 km/h 11.3 km/h 74% 0 mm 0 W/m2
04:24 3.2 °C -1.1 °C 1002.9 hPa SW 1 km/h 14.5 km/h 74% 0 mm 0 W/m2
04:29 3.1 °C -1.1 °C 1002.6 hPa SW 0.5 km/h 14.5 km/h 74.1% 0 mm 0 W/m2
04:34 3.1 °C -0.9 °C 1002.6 hPa WSW 1.6 km/h 14.5 km/h 75% 0 mm 0 W/m2
04:39 3 °C -1 °C 1002.9 hPa WSW 1 km/h 12.9 km/h 75% 0 mm 0 W/m2
04:44 2.9 °C -0.9 °C 1002.9 hPa SW 1.3 km/h 14.5 km/h 75.5% 0 mm 0 W/m2
04:49 2.9 °C -0.9 °C 1002.9 hPa SW 1.1 km/h 14.5 km/h 76% 0 mm 0 W/m2
04:54 2.9 °C -0.9 °C 1002.9 hPa SW 2.6 km/h 14.5 km/h 76% 0 mm 0 W/m2
04:59 2.8 °C -0.9 °C 1002.9 hPa WSW 2.6 km/h 17.7 km/h 76% 0 mm 0 W/m2
05:04 2.8 °C -0.8 °C 1003.3 hPa WSW 3.7 km/h 17.7 km/h 76.9% 0 mm 0 W/m2
05:09 2.8 °C -0.8 °C 1003.3 hPa WSW 2.3 km/h 14.5 km/h 77% 0 mm 0 W/m2
05:14 2.8 °C -0.8 °C 1003.3 hPa WSW 1.6 km/h 14.5 km/h 77% 0 mm 0 W/m2
05:19 2.7 °C -0.9 °C 1003.3 hPa SW 1 km/h 14.5 km/h 77% 0 mm 0 W/m2
05:24 2.7 °C -0.8 °C 1003.3 hPa WSW 3.9 km/h 14.5 km/h 77.7% 0 mm 0 W/m2
05:29 2.7 °C -0.8 °C 1003.3 hPa SW 3.2 km/h 16.1 km/h 78% 0 mm 0 W/m2
05:34 2.7 °C -0.8 °C 1003.3 hPa WSW 3.4 km/h 16.1 km/h 78% 0 mm 0 W/m2
05:39 2.7 °C -0.8 °C 1003.3 hPa WSW 3.1 km/h 17.7 km/h 78% 0 mm 0 W/m2
05:44 2.7 °C -0.8 °C 1003.3 hPa WSW 1.9 km/h 17.7 km/h 78% 0 mm 0 W/m2
05:49 2.7 °C -0.8 °C 1003.3 hPa SW 3.7 km/h 17.7 km/h 78% 0 mm 0 W/m2
05:54 2.7 °C -0.8 °C 1003.3 hPa SW 1.6 km/h 17.7 km/h 78% 0 mm 0 W/m2
05:59 2.7 °C -0.8 °C 1003.3 hPa WSW 1.1 km/h 17.7 km/h 78% 0 mm 0 W/m2
06:04 2.6 °C -0.7 °C 1003.3 hPa WSW 1.8 km/h 17.7 km/h 78.6% 0 mm 0 W/m2
06:09 2.6 °C -0.7 °C 1003.3 hPa SW 1.9 km/h 14.5 km/h 79.3% 0 mm 0 W/m2
06:14 2.6 °C -0.9 °C 1003.3 hPa SW 0.8 km/h 14.5 km/h 78% 0 mm 0 W/m2
06:19 2.5 °C -0.9 °C 1003.3 hPa SW 0.6 km/h 14.5 km/h 78% 0 mm 0 W/m2
06:24 2.4 °C -1 °C 1003.3 hPa SW 2.4 km/h 16.1 km/h 78% 0 mm 0 W/m2
06:29 2.4 °C -1.1 °C 1003.3 hPa WSW 1.6 km/h 16.1 km/h 78% 0 mm 0 W/m2
06:34 2.4 °C -1.1 °C 1003.3 hPa SW 0.8 km/h 16.1 km/h 78% 0 mm 0 W/m2
06:39 2.3 °C -1.1 °C 1003.3 hPa SW 0.3 km/h 6.4 km/h 78.1% 0 mm 0 W/m2
06:44 2.3 °C -0.9 °C 1003.3 hPa SW 0.2 km/h 6.4 km/h 79% 0 mm 0 W/m2
06:49 2.3 °C -1 °C 1002.9 hPa SW 2.1 km/h 11.3 km/h 79% 0 mm 0 W/m2
06:54 2.3 °C -1 °C 1002.9 hPa WSW 1.8 km/h 14.5 km/h 79% 0 mm 0 W/m2
06:59 2.3 °C -1 °C 1003.3 hPa WSW 1.9 km/h 16.1 km/h 79% 0 mm 0 W/m2
07:04 2.2 °C -1 °C 1003.3 hPa WSW 1.6 km/h 16.1 km/h 79% 0 mm 0 W/m2
07:09 2.3 °C -1 °C 1003.3 hPa SW 2.4 km/h 19.3 km/h 79% 0 mm 0 W/m2
07:14 2.3 °C -1 °C 1003.3 hPa SW 2.1 km/h 19.3 km/h 79% 0 mm 0 W/m2
07:19 2.3 °C -1 °C 1003.3 hPa SW 1.8 km/h 19.3 km/h 79% 0 mm 5 W/m2
07:24 2.3 °C -1 °C 1003.3 hPa WSW 0.2 km/h 19.3 km/h 79% 0 mm 11 W/m2
07:29 2.3 °C -1 °C 1002.9 hPa WSW 1.4 km/h 19.3 km/h 78.8% 0 mm 12 W/m2
07:34 2.3 °C -1.1 °C 1002.9 hPa WSW 1 km/h 19.3 km/h 78% 0 mm 12 W/m2
07:39 2.3 °C -1.1 °C 1002.9 hPa WSW 0.5 km/h 4.8 km/h 78% 0 mm 14 W/m2
07:44 2.3 °C -1.1 °C 1002.9 hPa Calm   4.8 km/h 78% 0 mm 19 W/m2
07:49 2.3 °C -1.1 °C 1003.3 hPa Calm   4.8 km/h 78% 0 mm 39 W/m2
07:54 2.4 °C -0.9 °C 1003.3 hPa Calm   4.8 km/h 78.3% 0 mm 42 W/m2
07:59 2.6 °C -0.8 °C 1003.3 hPa Calm   4.8 km/h 78.7% 0 mm 39 W/m2
08:00 2.7 °C -0.8 °C 1003.3 hPa Calm   4.8 km/h 78% 0 mm 32 W/m2
08:09 2.9 °C -0.5 °C 1003.3 hPa Calm     78% 0 mm 69 W/m2
08:14 3.3 °C -0.3 °C 1003.3 hPa Calm     77.1% 0 mm 60 W/m2
08:19 3.5 °C -0.2 °C 1003.6 hPa Calm     76.4% 0 mm 111 W/m2
08:24 3.7 °C -0.3 °C 1003.3 hPa Calm     75% 0 mm 167 W/m2
08:29 3.9 °C -0.2 °C 1003.6 hPa Calm     75% 0 mm 185 W/m2
08:34 4.1 °C -0.1 °C 1003.6 hPa WSW 0.3 km/h 8 km/h 73.9% 0 mm 185 W/m2
08:39 4.2 °C -0.2 °C 1003.6 hPa SW 0.3 km/h 8 km/h 73% 0 mm 144 W/m2
08:44 4.3 °C -0.1 °C 1003.6 hPa WSW 0.6 km/h 8 km/h 72.8% 0 mm 135 W/m2
08:49 4.4 °C -0.2 °C 1003.6 hPa SW 1.8 km/h 8 km/h 71.7% 0 mm 204 W/m2
08:54 4.6 °C -0.1 °C 1003.6 hPa Calm   8 km/h 71.8% 0 mm 165 W/m2
08:59 4.8 °C 0 °C 1003.6 hPa SW 1.1 km/h 8 km/h 71.3% 0 mm 135 W/m2
09:04 4.8 °C -0.2 °C 1003.6 hPa SW 1.6 km/h 8 km/h 69.9% 0 mm 109 W/m2
09:09 4.8 °C -0.4 °C 1003.6 hPa SW 0.8 km/h 8 km/h 69% 0 mm 91 W/m2
09:14 4.8 °C -0.4 °C 1003.6 hPa SW 3.2 km/h 14.5 km/h 69% 0 mm 137 W/m2
09:19 4.8 °C -0.4 °C 1003.9 hPa WSW 0.3 km/h 14.5 km/h 69% 0 mm 137 W/m2
09:24 4.8 °C -0.2 °C 1003.9 hPa SW 1 km/h 14.5 km/h 69.6% 0 mm 102 W/m2
09:29 4.8 °C -0.3 °C 1003.9 hPa SW 0.6 km/h 14.5 km/h 69% 0 mm 114 W/m2
09:34 4.8 °C -0.3 °C 1004.3 hPa SW 0.8 km/h 14.5 km/h 69.3% 0 mm 111 W/m2
09:39 4.8 °C -0.2 °C 1004.3 hPa SW 1.1 km/h 6.4 km/h 69.7% 0 mm 97 W/m2
09:44 4.8 °C -0.4 °C 1004.3 hPa SW 1.3 km/h 6.4 km/h 69% 0 mm 120 W/m2
09:49 4.8 °C -0.3 °C 1004.3 hPa SW 0.6 km/h 6.4 km/h 69.4% 0 mm 90 W/m2
09:54 4.9 °C -0.3 °C 1004.3 hPa SW 0.2 km/h 6.4 km/h 69% 0 mm 72 W/m2
09:59 4.9 °C -0.3 °C 1004.3 hPa SW 1.3 km/h 9.7 km/h 68.8% 0 mm 70 W/m2
10:04 4.9 °C -0.3 °C 1004.3 hPa SW 0.3 km/h 9.7 km/h 68.5% 0 mm 90 W/m2
10:09 5 °C -0.2 °C 1004.3 hPa WSW 0.8 km/h 6.4 km/h 69% 0 mm 90 W/m2
10:14 5.1 °C -0.3 °C 1004.3 hPa WSW 3.2 km/h 16.1 km/h 68.1% 0 mm 100 W/m2
10:19 5.2 °C -0.2 °C 1003.9 hPa WSW 1.1 km/h 16.1 km/h 68% 0 mm 167 W/m2
10:24 5.4 °C 0.1 °C 1004.3 hPa WSW 0.2 km/h 16.1 km/h 68.7% 0 mm 223 W/m2
10:29 5.7 °C 0.3 °C 1004.3 hPa WSW 3.2 km/h 19.3 km/h 68% 0 mm 229 W/m2
10:34 6.1 °C 0.3 °C 1004.3 hPa WSW 2.1 km/h 19.3 km/h 66.5% 0 mm 339 W/m2
10:39 6.5 °C 0.5 °C 1004.3 hPa WSW 2.6 km/h 16.1 km/h 65.6% 0 mm 397 W/m2
10:44 7 °C 1 °C 1004.3 hPa WSW 2.4 km/h 16.1 km/h 65.6% 0 mm 408 W/m2
10:49 7.5 °C 0.9 °C 1003.9 hPa West 3.7 km/h 17.7 km/h 63.1% 0 mm 401 W/m2
10:54 7.9 °C 0.9 °C 1003.9 hPa West 7.6 km/h 25.7 km/h 61.2% 0 mm 274 W/m2
10:59 8.1 °C 0.9 °C 1003.9 hPa WSW 3.2 km/h 25.7 km/h 60.2% 0 mm 229 W/m2
11:04 8.2 °C 0.9 °C 1003.9 hPa WSW 2.6 km/h 25.7 km/h 59.8% 0 mm 179 W/m2
11:09 8.2 °C 0.9 °C 1003.6 hPa SW 2.4 km/h 16.1 km/h 60% 0 mm 327 W/m2
11:14 8.4 °C 1.2 °C 1003.6 hPa WSW 2.6 km/h 16.1 km/h 60.5% 0 mm 267 W/m2
11:19 8.5 °C 0.9 °C 1003.6 hPa WSW 3.9 km/h 16.1 km/h 59.1% 0 mm 251 W/m2
11:24 8.5 °C 0.6 °C 1003.6 hPa WSW 5.8 km/h 16.1 km/h 57.6% 0 mm 288 W/m2
11:29 8.4 °C 0.8 °C 1003.6 hPa WSW 4.2 km/h 16.1 km/h 58.4% 0 mm 288 W/m2
11:34 8.4 °C 0.7 °C 1003.3 hPa WSW 4.5 km/h 16.1 km/h 58.2% 0 mm 139 W/m2
11:39 8.4 °C 0.6 °C 1003.3 hPa WSW 4 km/h 17.7 km/h 57.8% 0 mm 313 W/m2
11:44 8.3 °C 0.6 °C 1003.3 hPa WSW 3.9 km/h 17.7 km/h 58% 0 mm 329 W/m2
11:49 8.2 °C 0.4 °C 1003.3 hPa WSW 3.5 km/h 17.7 km/h 57.8% 0 mm 329 W/m2
11:54 8.2 °C 0.6 °C 1002.9 hPa SW 3.5 km/h 17.7 km/h 58.9% 0 mm 202 W/m2
11:59 8.1 °C 0.3 °C 1002.9 hPa SW 4.2 km/h 17.7 km/h 58% 0 mm 171 W/m2
12:00 8 °C 0.5 °C 1002.9 hPa WSW 1.6 km/h 17.7 km/h 59% 0 mm 139 W/m2
12:09 7.9 °C 0.3 °C 1002.9 hPa West 1.3 km/h 8 km/h 58.7% 0 mm 176 W/m2
12:14 7.8 °C 0.2 °C 1002.9 hPa SW 4 km/h 12.9 km/h 58.4% 0 mm 186 W/m2
12:19 7.7 °C 0.2 °C 1002.9 hPa WSW 6.1 km/h 17.7 km/h 58.9% 0 mm 188 W/m2
12:24 7.7 °C -0.1 °C 1002.9 hPa WSW 4.3 km/h 20.9 km/h 57.8% 0 mm 397 W/m2
12:29 7.9 °C 0 °C 1002.9 hPa SW 5.6 km/h 20.9 km/h 57.4% 0 mm 299 W/m2
12:34 8.2 °C 0 °C 1002.6 hPa WSW 5 km/h 20.9 km/h 56.3% 0 mm 559 W/m2
12:39 8.3 °C 0.1 °C 1002.6 hPa WSW 1.6 km/h 19.3 km/h 56.1% 0 mm 489 W/m2
12:44 8.5 °C 0.4 °C 1002.6 hPa WSW 4.2 km/h 19.3 km/h 56.7% 0 mm 278 W/m2
12:49 8.6 °C 0.1 °C 1002.6 hPa WSW 2.6 km/h 19.3 km/h 55.3% 0 mm 230 W/m2
12:54 8.4 °C 0.2 °C 1002.6 hPa WSW 2.7 km/h 19.3 km/h 55.8% 0 mm 132 W/m2
12:59 8.2 °C -0.3 °C 1002.6 hPa WSW 4.7 km/h 19.3 km/h 54.9% 0 mm 200 W/m2
13:04 8 °C 0.1 °C 1002.6 hPa West 1.9 km/h 19.3 km/h 57.3% 0 mm 207 W/m2
13:09 7.9 °C -0.1 °C 1002.6 hPa SW 5.6 km/h 19.3 km/h 56.9% 0 mm 213 W/m2
13:14 7.9 °C -0.1 °C 1002.6 hPa WSW 4 km/h 25.7 km/h 57.2% 0 mm 188 W/m2
13:19 7.8 °C -0.1 °C 1002.6 hPa WSW 4.2 km/h 25.7 km/h 57.5% 0 mm 232 W/m2
13:24 7.8 °C -0.2 °C 1002.6 hPa WSW 3.2 km/h 25.7 km/h 57% 0 mm 185 W/m2
13:29 7.7 °C -0.3 °C 1002.6 hPa SW 3.5 km/h 25.7 km/h 56.8% 0 mm 176 W/m2
13:34 7.6 °C -0.3 °C 1002.6 hPa West 1.8 km/h 25.7 km/h 57.5% 0 mm 385 W/m2
13:39 7.8 °C -0.1 °C 1002.6 hPa SW 4.5 km/h 11.3 km/h 57.5% 0 mm 257 W/m2
13:44 7.8 °C -0.3 °C 1002.6 hPa SW 3.7 km/h 20.9 km/h 56.2% 0 mm 237 W/m2
13:49 7.8 °C -0.3 °C 1002.6 hPa SW 5 km/h 29 km/h 56.3% 0 mm 439 W/m2
13:54 7.8 °C -0.9 °C 1002.6 hPa West 8.4 km/h 29 km/h 54% 0 mm 185 W/m2
13:59 7.7 °C -0.6 °C 1002.6 hPa West 3.2 km/h 29 km/h 55.7% 0 mm 176 W/m2
14:04 7.8 °C -0.5 °C 1002.6 hPa SW 3.2 km/h 29 km/h 55.8% 0 mm 260 W/m2
14:09 7.9 °C -1 °C 1002.6 hPa WSW 6.4 km/h 24.1 km/h 53.5% 0 mm 165 W/m2
14:14 7.8 °C -1.2 °C 1002.6 hPa West 4.3 km/h 24.1 km/h 52.9% 0 mm 132 W/m2
14:19 7.8 °C -0.9 °C 1002.9 hPa West 3.2 km/h 24.1 km/h 54% 0 mm 478 W/m2
14:24 7.8 °C -1.1 °C 1002.9 hPa West 4.2 km/h 24.1 km/h 53.5% 0 mm 265 W/m2
14:29 7.9 °C -0.9 °C 1002.9 hPa WSW 4.2 km/h 24.1 km/h 53.8% 0 mm 265 W/m2
14:34 7.9 °C -0.9 °C 1002.9 hPa WSW 2.1 km/h 24.1 km/h 53.5% 0 mm 216 W/m2
14:39 8 °C -0.9 °C 1002.9 hPa West 7.2 km/h 29 km/h 53.5% 0 mm 216 W/m2
14:44 7.9 °C -1.3 °C 1002.9 hPa West 7.7 km/h 29 km/h 52% 0 mm 76 W/m2
14:49 7.9 °C -1.2 °C 1002.9 hPa WSW 2.1 km/h 29 km/h 52.8% 0 mm 91 W/m2
14:54 7.9 °C -1.1 °C 1002.9 hPa WSW 5.6 km/h 29 km/h 53.2% 0 mm 86 W/m2
14:59 7.8 °C -1.5 °C 1003.3 hPa WSW 7.1 km/h 29 km/h 51.6% 0 mm 100 W/m2
15:04 7.8 °C -1.5 °C 1003.3 hPa WNW 6.9 km/h 29 km/h 51.7% 0 mm 100 W/m2
15:09 7.8 °C -1.5 °C 1003.3 hPa WNW 8.4 km/h 22.5 km/h 51.9% 0 mm 83 W/m2
15:14 7.7 °C -1.6 °C 1003.3 hPa West 2.7 km/h 22.5 km/h 52% 0 mm 107 W/m2
15:19 7.7 °C -1.4 °C 1003.6 hPa West 4.5 km/h 22.5 km/h 52.7% 0 mm 107 W/m2
15:24 7.7 °C -1.7 °C 1003.6 hPa West 5.1 km/h 22.5 km/h 51.4% 0 mm 81 W/m2
15:29 7.6 °C -1.9 °C 1003.6 hPa West 9.8 km/h 27.4 km/h 51% 0 mm 32 W/m2
15:34 7.4 °C -1.9 °C 1003.9 hPa West 4.3 km/h 27.4 km/h 51.7% 0 mm 19 W/m2
15:39 7.2 °C -1.8 °C 1004.3 hPa NW 10 km/h 27.4 km/h 52.5% 0 mm 23 W/m2
15:44 6.9 °C -0.6 °C 1004.3 hPa NW 10.6 km/h 27.4 km/h 58.6% 0 mm 32 W/m2
15:49 6.4 °C 0.2 °C 1004.6 hPa WNW 15.9 km/h 30.6 km/h 64.4% 0 mm 37 W/m2
15:54 5.8 °C 0.4 °C 1004.6 hPa NW 11.1 km/h 30.6 km/h 67.9% 0 mm 32 W/m2
15:59 5.5 °C 0.6 °C 1004.6 hPa NW 13 km/h 30.6 km/h 70.9% 0 mm 21 W/m2
16:00 5.3 °C 0.7 °C 1004.6 hPa West 8 km/h 30.6 km/h 72% 0 mm 19 W/m2
16:09 4.9 °C 0.8 °C 1005 hPa WNW 8.2 km/h 20.9 km/h 74.5% 0 mm 21 W/m2
16:14 4.8 °C 0.8 °C 1005 hPa WNW 4.8 km/h 20.9 km/h 75.3% 0 mm 16 W/m2
16:19 4.7 °C 0.8 °C 1005.3 hPa WNW 4 km/h 20.9 km/h 76% 0 mm 18 W/m2
16:24 4.6 °C 0.8 °C 1005.3 hPa WNW 3.5 km/h 20.9 km/h 76% 0 mm 19 W/m2
16:29 4.6 °C 0.7 °C 1005.3 hPa WNW 3.5 km/h 20.9 km/h 76% 0 mm 18 W/m2
16:34 4.5 °C 0.7 °C 1005.3 hPa WNW 3.1 km/h 20.9 km/h 76% 0 mm 12 W/m2
16:39 4.4 °C 0.6 °C 1005.3 hPa West 4.3 km/h 17.7 km/h 76% 0 mm 11 W/m2
16:44 4.4 °C 0.5 °C 1005.3 hPa West 1 km/h 17.7 km/h 76% 0 mm 9 W/m2
16:49 4.3 °C 0.5 °C 1005.6 hPa WNW 2.7 km/h 17.7 km/h 76.2% 0 mm 7 W/m2
16:54 4.2 °C 0.6 °C 1005.6 hPa WNW 7.1 km/h 17.7 km/h 77% 0 mm 0 W/m2
16:59 4.2 °C 0.5 °C 1006 hPa WNW 4.5 km/h 17.7 km/h 77.3% 0 mm 0 W/m2
17:04 4.1 °C 0.6 °C 1006 hPa WNW 5.8 km/h 17.7 km/h 78% 0 mm 0 W/m2
17:09 3.9 °C 0.5 °C 1006.3 hPa WNW 6.1 km/h 17.7 km/h 78.1% 0 mm 0 W/m2
17:14 3.9 °C 0.6 °C 1006.3 hPa WNW 5.3 km/h 19.3 km/h 79% 0 mm 0 W/m2
17:19 3.9 °C 0.7 °C 1006.3 hPa WNW 6.4 km/h 19.3 km/h 79.7% 0 mm 0 W/m2
17:24 3.8 °C 0.7 °C 1006.3 hPa WNW 10.8 km/h 30.6 km/h 80.2% 0 mm 0 W/m2
17:29 3.7 °C 0.8 °C 1006.7 hPa West 5.8 km/h 30.6 km/h 81.4% 0 mm 0 W/m2
17:34 3.6 °C 0.9 °C 1006.7 hPa West 1 km/h 30.6 km/h 82.4% 0 mm 0 W/m2
17:39 3.5 °C 0.9 °C 1006.7 hPa WNW 1 km/h 14.5 km/h 83% 0 mm 0 W/m2
17:44 3.3 °C 0.8 °C 1006.7 hPa West 0.6 km/h 14.5 km/h 83.2% 0 mm 0 W/m2
17:49 3.2 °C 0.8 °C 1006.7 hPa West 1 km/h 14.5 km/h 84% 0 mm 0 W/m2
17:54 3.2 °C 0.7 °C 1007 hPa West 0.5 km/h 14.5 km/h 84.2% 0 mm 0 W/m2
17:59 3.1 °C 0.8 °C 1007 hPa West 0.5 km/h 14.5 km/h 85% 0 mm 0 W/m2
18:04 3.1 °C 0.8 °C 1007 hPa West 0.8 km/h 14.5 km/h 85% 0 mm 0 W/m2
18:09 2.9 °C 0.7 °C 1007 hPa West 0.3 km/h 8 km/h 85% 0 mm 0 W/m2
18:14 2.9 °C 0.6 °C 1007 hPa West 0.2 km/h 8 km/h 85% 0 mm 0 W/m2
18:19 2.8 °C 0.6 °C 1007 hPa Calm   8 km/h 85% 0 mm 0 W/m2
18:24 2.7 °C 0.5 °C 1007.3 hPa Calm   8 km/h 85% 0 mm 0 W/m2
18:29 2.7 °C 0.4 °C 1007.3 hPa Calm   8 km/h 85% 0 mm 0 W/m2
18:34 2.6 °C 0.3 °C 1007.3 hPa West 0.5 km/h 8 km/h 85% 0 mm 0 W/m2
18:39 2.5 °C 0.2 °C 1007.7 hPa West 0.3 km/h 6.4 km/h 85% 0 mm 0 W/m2
18:44 2.4 °C 0.2 °C 1007.7 hPa West 1.4 km/h 6.4 km/h 85% 0 mm 0 W/m2
18:49 2.3 °C 0.1 °C 1007.7 hPa West 0.6 km/h 6.4 km/h 85% 0 mm 0 W/m2
18:54 2.3 °C 0 °C 1007.7 hPa West 0.3 km/h 6.4 km/h 84.9% 0 mm 0 W/m2
18:59 2.2 °C -0.2 °C 1007.7 hPa Calm   6.4 km/h 84% 0 mm 0 W/m2
19:04 2.2 °C -0.2 °C 1007.7 hPa West 0.2 km/h 6.4 km/h 84% 0 mm 0 W/m2
19:09 2.2 °C -0.3 °C 1008 hPa WNW 2.6 km/h 9.7 km/h 84% 0 mm 0 W/m2
19:14 2.1 °C -0.3 °C 1008.4 hPa WNW 1.8 km/h 9.7 km/h 84% 0 mm 0 W/m2
19:19 2.1 °C -0.4 °C 1008.4 hPa West 3.2 km/h 16.1 km/h 83.9% 0 mm 0 W/m2
19:24 2 °C -0.6 °C 1008.4 hPa WNW 2.7 km/h 16.1 km/h 83% 0 mm 0 W/m2
19:29 2 °C -0.7 °C 1008.4 hPa WNW 1.8 km/h 16.1 km/h 82.4% 0 mm 0 W/m2
19:34 1.9 °C -0.8 °C 1008.4 hPa West 1.6 km/h 16.1 km/h 82% 0 mm 0 W/m2
19:39 1.9 °C -0.9 °C 1008.4 hPa West 1.6 km/h 6.4 km/h 81.5% 0 mm 0 W/m2
19:44 1.8 °C -1.1 °C 1008.4 hPa WNW 2.7 km/h 11.3 km/h 81% 0 mm 0 W/m2
19:49 1.8 °C -1.3 °C 1008.4 hPa WNW 4.8 km/h 16.1 km/h 80% 0 mm 0 W/m2
19:54 1.8 °C -1.5 °C 1008.7 hPa WNW 6.9 km/h 19.3 km/h 78.9% 0 mm 0 W/m2
19:59 1.8 °C -1.7 °C 1008.7 hPa WNW 10.8 km/h 29 km/h 77.3% 0 mm 0 W/m2
20:00 1.8 °C -1.9 °C 1008.7 hPa NW 8 km/h 29 km/h 76% 0 mm 0 W/m2
20:09 1.9 °C -2.2 °C 1008.7 hPa WNW 10.3 km/h 22.5 km/h 74% 0 mm 0 W/m2
20:14 1.9 °C -2.4 °C 1008.7 hPa WNW 8.9 km/h 24.1 km/h 73% 0 mm 0 W/m2
20:19 1.9 °C -2.4 °C 1008.7 hPa WNW 3.9 km/h 24.1 km/h 73% 0 mm 0 W/m2
20:24 1.9 °C -2.4 °C 1008.7 hPa WNW 3.9 km/h 24.1 km/h 73% 0 mm 0 W/m2
20:29 1.8 °C -2.5 °C 1009 hPa NW 4.7 km/h 24.1 km/h 73% 0 mm 0 W/m2
20:34 1.7 °C -2.6 °C 1009 hPa WNW 3.1 km/h 24.1 km/h 73% 0 mm 0 W/m2
20:39 1.7 °C -2.7 °C 1009 hPa WNW 6.3 km/h 22.5 km/h 73% 0 mm 0 W/m2
20:44 1.6 °C -2.7 °C 1009.4 hPa WNW 6.4 km/h 22.5 km/h 73% 0 mm 0 W/m2
20:49 1.6 °C -2.9 °C 1009.4 hPa WNW 10.8 km/h 25.7 km/h 72.3% 0 mm 0 W/m2
20:54 1.6 °C -2.9 °C 1009.4 hPa WNW 4 km/h 25.7 km/h 72% 0 mm 0 W/m2
20:59 1.5 °C -2.8 °C 1009.7 hPa WNW 7.4 km/h 25.7 km/h 72.8% 0 mm 0 W/m2
21:04 1.4 °C -3.2 °C 1009.7 hPa NW 4.8 km/h 25.7 km/h 71.4% 0 mm 0 W/m2
21:09 1.4 °C -3.3 °C 1009.7 hPa WNW 5.6 km/h 19.3 km/h 71% 0 mm 0 W/m2
21:14 1.3 °C -3.3 °C 1009.7 hPa NW 4.3 km/h 19.3 km/h 71% 0 mm 0 W/m2
21:19 1.3 °C -3.4 °C 1010 hPa WNW 4.8 km/h 19.3 km/h 71% 0 mm 0 W/m2
21:24 1.2 °C -3.4 °C 1010 hPa WNW 3.2 km/h 19.3 km/h 71% 0 mm 0 W/m2
21:29 1.2 °C -3.5 °C 1010 hPa WNW 5.3 km/h 19.3 km/h 71% 0 mm 0 W/m2
21:34 1.1 °C -3.6 °C 1010 hPa NW 0.3 km/h 19.3 km/h 71% 0 mm 0 W/m2
21:39 1.1 °C -3.6 °C 1010 hPa NW 0.8 km/h 9.7 km/h 71% 0 mm 0 W/m2
21:44 1 °C -3.7 °C 1010 hPa WNW 1.6 km/h 11.3 km/h 71% 0 mm 0 W/m2
21:49 0.9 °C -3.8 °C 1010 hPa NW 5 km/h 17.7 km/h 71% 0 mm 0 W/m2
21:54 0.8 °C -3.8 °C 1010 hPa WNW 4.5 km/h 17.7 km/h 71% 0 mm 0 W/m2
21:59 0.8 °C -3.8 °C 1010 hPa NW 4.2 km/h 19.3 km/h 71% 0 mm 0 W/m2
22:04 0.8 °C -3.9 °C 1010 hPa NNW 3.1 km/h 19.3 km/h 70.5% 0 mm 0 W/m2
22:09 0.8 °C -4.1 °C 1010.4 hPa NW 2.7 km/h 17.7 km/h 70.1% 0 mm 0 W/m2
22:14 0.8 °C -3.9 °C 1010.4 hPa NW 0.5 km/h 17.7 km/h 70.7% 0 mm 0 W/m2
22:19 0.7 °C -3.9 °C 1010.4 hPa NNW 1.3 km/h 17.7 km/h 71% 0 mm 0 W/m2
22:24 0.7 °C -4.1 °C 1010.4 hPa NNW 1.9 km/h 17.7 km/h 70.7% 0 mm 0 W/m2
22:29 0.6 °C -4.1 °C 1010.4 hPa NW 2.1 km/h 17.7 km/h 70.9% 0 mm 0 W/m2
22:34 0.6 °C -4.3 °C 1010.4 hPa NW 1 km/h 17.7 km/h 70% 0 mm 0 W/m2
22:39 0.5 °C -4.2 °C 1010.4 hPa Calm   9.7 km/h 70.5% 0 mm 0 W/m2
22:44 0.4 °C -4.3 °C 1010.7 hPa NW 2.1 km/h 11.3 km/h 70.6% 0 mm 0 W/m2
22:49 0.4 °C -4.2 °C 1010.7 hPa WNW 2.9 km/h 11.3 km/h 71% 0 mm 0 W/m2
22:54 0.4 °C -4.2 °C 1010.7 hPa WNW 0.8 km/h 11.3 km/h 71% 0 mm 0 W/m2
22:59 0.4 °C -4.2 °C 1011.1 hPa WNW 2.6 km/h 11.3 km/h 71% 0 mm 0 W/m2
23:04 0.4 °C -4.2 °C 1010.7 hPa NW 1.6 km/h 11.3 km/h 71% 0 mm 0 W/m2
23:09 0.4 °C -4.2 °C 1011.1 hPa NNW 2.4 km/h 16.1 km/h 71% 0 mm 0 W/m2
23:14 0.4 °C -4.2 °C 1011.1 hPa NW 2.9 km/h 16.1 km/h 71% 0 mm 0 W/m2
23:19 0.4 °C -4.2 °C 1011.1 hPa WNW 1.6 km/h 16.1 km/h 71% 0 mm 0 W/m2
23:24 0.4 °C -4.3 °C 1011.1 hPa WNW 0.6 km/h 16.1 km/h 71% 0 mm 0 W/m2
23:29 0.3 °C -4.3 °C 1011.1 hPa WNW 1.9 km/h 16.1 km/h 71% 0 mm 0 W/m2
23:34 0.3 °C -4.3 °C 1011.1 hPa WNW 1.6 km/h 16.1 km/h 71% 0 mm 0 W/m2
23:39 0.2 °C -4.4 °C 1011.1 hPa Calm   9.7 km/h 71% 0 mm 0 W/m2
23:44 0.2 °C -4.4 °C 1011.1 hPa Calm   9.7 km/h 71% 0 mm 0 W/m2
23:49 0.1 °C -4.3 °C 1011.1 hPa Calm   9.7 km/h 72% 0 mm 0 W/m2
23:54 0.1 °C -4.4 °C 1011.4 hPa Calm   9.7 km/h 72% 0 mm 0 W/m2
23:59 -0.1 °C -4.5 °C 1011.4 hPa Calm   9.7 km/h 72% 0 mm 0 W/m2
Hartford County Weather
Compliments of Weather Underground - 2 mb